Time;durP1;ratioP1;P1;durP2;ratioP2;P2;SDS_P1;SDS_P2;PMS_P1;PMS_P2;Temp;Humidity;BMP_temperature;BMP_pressure;BME280_temperature;BME280_humidity;BME280_pressure;Samples;Min_cycle;Max_cycle;Signal;HPM_P1;HPM_P2
2022/07/19 00:00:07;;;;;;;0.87;0.70;;;16.30;99.90;;;;;;5058284;28;20484;-89
2022/07/19 00:02:34;;;;;;;0.90;0.80;;;16.20;99.90;;;;;;5060567;28;20499;-86
2022/07/19 00:05:01;;;;;;;1.17;0.60;;;16.20;99.90;;;;;;5070181;28;20876;-87
2022/07/19 00:07:28;;;;;;;3.53;0.90;;;16.00;99.90;;;;;;5081601;28;20470;-86
2022/07/19 00:09:55;;;;;;;0.63;0.63;;;15.90;99.90;;;;;;5072425;28;20509;-87
2022/07/19 00:12:22;;;;;;;7.50;0.70;;;15.90;99.90;;;;;;5060345;28;20459;-87
2022/07/19 00:14:49;;;;;;;1.07;0.73;;;15.80;99.90;;;;;;5064856;28;20483;-89
2022/07/19 00:17:18;;;;;;;0.60;0.50;;;15.80;99.90;;;;;;5062806;28;20483;-87
2022/07/19 00:19:45;;;;;;;0.63;0.63;;;15.70;99.90;;;;;;5059122;28;20585;-88
2022/07/19 00:22:12;;;;;;;2.93;0.60;;;15.70;99.90;;;;;;5058977;28;20467;-87
2022/07/19 00:24:39;;;;;;;0.80;0.73;;;15.80;99.90;;;;;;5056212;28;20999;-87
2022/07/19 00:27:06;;;;;;;0.87;0.63;;;15.70;99.90;;;;;;5052675;28;20468;-87
2022/07/19 00:29:33;;;;;;;1.10;1.00;;;15.60;99.90;;;;;;5062233;28;20485;-86
2022/07/19 00:32:00;;;;;;;0.80;0.80;;;15.70;99.90;;;;;;5058852;28;20537;-88
2022/07/19 00:34:28;;;;;;;0.70;0.70;;;15.70;99.90;;;;;;5059071;28;20460;-87
2022/07/19 00:36:55;;;;;;;0.73;0.73;;;15.60;99.90;;;;;;5061164;28;20875;-88
2022/07/19 00:39:22;;;;;;;0.60;0.60;;;15.60;99.90;;;;;;5052897;28;20552;-87
2022/07/19 00:41:49;;;;;;;0.57;0.50;;;15.60;99.90;;;;;;5062099;28;20468;-88
2022/07/19 00:44:16;;;;;;;4.20;0.77;;;15.50;99.90;;;;;;5056031;28;20460;-88
2022/07/19 00:46:44;;;;;;;1.10;0.70;;;15.50;99.90;;;;;;5059773;28;20464;-87
2022/07/19 00:49:11;;;;;;;0.80;0.60;;;15.50;99.90;;;;;;5058610;28;20480;-87
2022/07/19 00:51:41;;;;;;;0.50;0.40;;;15.60;99.90;;;;;;5064119;28;20529;-87
2022/07/19 00:54:11;;;;;;;1.63;0.70;;;15.60;99.90;;;;;;5061344;28;20458;-87
2022/07/19 00:56:39;;;;;;;0.60;0.60;;;15.50;99.90;;;;;;5051744;28;20549;-86
2022/07/19 00:59:08;;;;;;;0.60;0.60;;;15.50;99.90;;;;;;5060001;28;20465;-86
2022/07/19 01:01:35;;;;;;;0.90;0.70;;;15.50;99.90;;;;;;5061396;28;20466;-88
2022/07/19 01:04:03;;;;;;;0.80;0.80;;;15.40;99.90;;;;;;5063179;28;20460;-86
2022/07/19 01:06:30;;;;;;;0.73;0.70;;;15.40;99.90;;;;;;5059049;28;20457;-88
2022/07/19 01:08:58;;;;;;;0.70;0.70;;;15.40;99.90;;;;;;5055576;28;20576;-88
2022/07/19 01:11:25;;;;;;;0.80;0.77;;;15.40;99.90;;;;;;5057318;28;20463;-87
2022/07/19 01:13:52;;;;;;;1.03;0.80;;;15.30;99.90;;;;;;5061111;28;20456;-88
2022/07/19 01:16:19;;;;;;;1.27;0.93;;;15.30;99.90;;;;;;5058379;28;20491;-88
2022/07/19 01:18:46;;;;;;;0.90;0.50;;;15.30;99.90;;;;;;5060815;28;20465;-87
2022/07/19 01:21:22;;;;;;;0.80;0.60;;;15.20;99.90;;;;;;5062694;28;20459;-87
2022/07/19 01:23:50;;;;;;;1.00;0.60;;;15.20;99.90;;;;;;5056164;28;21008;-87
2022/07/19 01:26:17;;;;;;;0.50;0.43;;;15.10;99.90;;;;;;5056253;28;20466;-88
2022/07/19 01:28:46;;;;;;;1.20;0.50;;;15.10;99.90;;;;;;5056914;28;20599;-87
2022/07/19 01:31:13;;;;;;;0.80;0.80;;;15.10;99.90;;;;;;5053667;28;20508;-87
2022/07/19 01:33:41;;;;;;;5.40;0.70;;;15.10;99.90;;;;;;5060899;28;20466;-87
2022/07/19 01:36:08;;;;;;;0.90;0.60;;;15.10;99.90;;;;;;5055954;28;20455;-88
2022/07/19 01:38:37;;;;;;;2.10;1.10;;;15.10;99.90;;;;;;5064206;28;20754;-86
2022/07/19 01:41:05;;;;;;;1.03;0.73;;;15.10;99.90;;;;;;5059082;28;20538;-88
2022/07/19 01:43:32;;;;;;;0.83;0.60;;;15.10;99.90;;;;;;5060839;28;20463;-85
2022/07/19 01:45:59;;;;;;;1.43;0.60;;;15.00;99.90;;;;;;5059133;28;20527;-84
2022/07/19 01:48:26;;;;;;;1.10;0.77;;;15.00;99.90;;;;;;5059314;28;20476;-86
2022/07/19 01:50:53;;;;;;;0.60;0.60;;;15.00;99.90;;;;;;5060171;28;20552;-84
2022/07/19 01:53:20;;;;;;;0.70;0.60;;;14.90;99.90;;;;;;5050758;28;20452;-85
2022/07/19 01:55:49;;;;;;;0.70;0.70;;;14.90;99.90;;;;;;5063455;28;20517;-84
2022/07/19 01:58:16;;;;;;;0.63;0.60;;;14.90;99.90;;;;;;5060513;28;20451;-87
2022/07/19 02:00:43;;;;;;;0.70;0.70;;;15.10;99.90;;;;;;5066287;28;20902;-87
2022/07/19 02:03:10;;;;;;;0.70;0.70;;;15.10;99.90;;;;;;5065149;28;20516;-84
2022/07/19 02:05:37;;;;;;;0.80;0.77;;;15.00;99.90;;;;;;5059139;28;20529;-84
2022/07/19 02:08:04;;;;;;;2.07;0.70;;;14.90;99.90;;;;;;5058810;28;20947;-84
2022/07/19 02:10:31;;;;;;;0.60;0.60;;;14.80;99.90;;;;;;5061597;28;20532;-85
2022/07/19 02:13:00;;;;;;;1.87;0.80;;;14.70;99.90;;;;;;5055824;28;20500;-85
2022/07/19 02:15:27;;;;;;;1.00;0.70;;;14.70;99.90;;;;;;5065936;28;20482;-83
2022/07/19 02:17:54;;;;;;;0.83;0.63;;;14.70;99.90;;;;;;5057968;28;20458;-85
2022/07/19 02:20:21;;;;;;;0.67;0.67;;;14.60;99.90;;;;;;5063404;28;20531;-84
2022/07/19 02:22:48;;;;;;;0.70;0.70;;;14.60;99.90;;;;;;5065203;28;20474;-83
2022/07/19 02:25:15;;;;;;;1.07;0.97;;;14.50;99.90;;;;;;5068107;28;20529;-85
2022/07/19 02:27:42;;;;;;;1.17;0.80;;;14.40;99.90;;;;;;5063497;28;20808;-86
2022/07/19 02:30:12;;;;;;;1.23;0.90;;;14.40;99.90;;;;;;5065124;28;20478;-85
2022/07/19 02:32:39;;;;;;;2.47;0.93;;;14.40;99.90;;;;;;5058707;28;20465;-85
2022/07/19 02:35:08;;;;;;;0.60;0.60;;;14.40;99.90;;;;;;5062495;28;20485;-84
2022/07/19 02:37:35;;;;;;;0.80;0.80;;;14.30;99.90;;;;;;5065571;28;20458;-85
2022/07/19 02:40:02;;;;;;;0.60;0.53;;;14.20;99.90;;;;;;5067924;28;20473;-84
2022/07/19 02:42:29;;;;;;;1.27;0.73;;;14.20;99.90;;;;;;5062162;28;20470;-86
2022/07/19 02:44:56;;;;;;;0.67;0.67;;;14.40;99.90;;;;;;5060252;28;20467;-88
2022/07/19 02:47:25;;;;;;;1.00;0.90;;;14.60;99.90;;;;;;5063874;28;20713;-85
2022/07/19 02:49:52;;;;;;;1.20;1.00;;;14.50;99.90;;;;;;5056027;28;20539;-84
2022/07/19 02:52:19;;;;;;;3.33;0.90;;;14.60;99.90;;;;;;5059409;28;20547;-85
2022/07/19 02:54:46;;;;;;;1.10;0.80;;;14.60;99.90;;;;;;5062883;28;20518;-84
2022/07/19 02:57:12;;;;;;;1.60;0.67;;;14.50;99.90;;;;;;5064565;28;20527;-87
2022/07/19 02:59:40;;;;;;;3.23;0.80;;;14.50;99.90;;;;;;5066139;28;20504;-87
2022/07/19 03:02:07;;;;;;;1.67;0.97;;;14.50;99.90;;;;;;5060100;28;20465;-85
2022/07/19 03:04:35;;;;;;;1.00;1.00;;;14.50;99.90;;;;;;5057839;28;20535;-86
2022/07/19 03:07:02;;;;;;;0.80;0.50;;;14.40;99.90;;;;;;5060499;28;20470;-85
2022/07/19 03:09:29;;;;;;;0.97;0.70;;;14.40;99.90;;;;;;5058028;28;20475;-85
2022/07/19 03:11:56;;;;;;;0.70;0.70;;;14.40;99.90;;;;;;5065975;28;20470;-85
2022/07/19 03:14:23;;;;;;;2.30;1.10;;;14.30;99.90;;;;;;5063274;28;20501;-85
2022/07/19 03:16:50;;;;;;;0.90;0.90;;;14.30;99.90;;;;;;5061831;28;20882;-85
2022/07/19 03:19:17;;;;;;;1.27;1.00;;;14.10;99.90;;;;;;5056645;28;20461;-84
2022/07/19 03:21:45;;;;;;;1.83;0.90;;;14.10;99.90;;;;;;5064353;28;20467;-86
2022/07/19 03:24:12;;;;;;;0.70;0.60;;;14.00;99.90;;;;;;5063170;28;20540;-86
2022/07/19 03:26:39;;;;;;;0.60;0.60;;;13.90;99.90;;;;;;5059441;28;20652;-85
2022/07/19 03:29:06;;;;;;;2.73;0.67;;;13.90;99.90;;;;;;5056980;28;20469;-87
2022/07/19 03:31:33;;;;;;;0.80;0.60;;;13.90;99.90;;;;;;5056087;28;20602;-84
2022/07/19 03:34:00;;;;;;;0.80;0.70;;;13.90;99.90;;;;;;5058084;28;20469;-85
2022/07/19 03:36:27;;;;;;;0.77;0.70;;;14.00;99.90;;;;;;5063285;28;20519;-85
2022/07/19 03:38:56;;;;;;;1.37;0.97;;;14.20;99.90;;;;;;5066875;28;20555;-85
2022/07/19 03:41:23;;;;;;;0.70;0.67;;;14.20;99.90;;;;;;5058687;28;20453;-84
2022/07/19 03:43:50;;;;;;;0.80;0.70;;;14.10;99.90;;;;;;5062496;28;20475;-84
2022/07/19 03:46:19;;;;;;;1.80;1.03;;;14.10;99.90;;;;;;5057956;28;20457;-85
2022/07/19 03:48:46;;;;;;;1.43;1.07;;;14.10;99.90;;;;;;5060808;28;20534;-87
2022/07/19 03:51:13;;;;;;;1.57;0.80;;;14.20;99.90;;;;;;5061675;28;20483;-85
2022/07/19 03:53:40;;;;;;;0.70;0.70;;;14.20;99.90;;;;;;5062848;28;20466;-85
2022/07/19 03:56:09;;;;;;;0.90;0.70;;;14.30;99.90;;;;;;5061138;28;20467;-86
2022/07/19 03:58:35;;;;;;;1.20;0.73;;;14.40;99.90;;;;;;5065735;28;20472;-86
2022/07/19 04:01:03;;;;;;;1.50;0.70;;;14.50;99.90;;;;;;5060905;28;20537;-85
2022/07/19 04:03:30;;;;;;;1.97;0.90;;;14.60;99.90;;;;;;5056283;28;20852;-85
2022/07/19 04:05:57;;;;;;;0.90;0.80;;;14.50;99.90;;;;;;5057975;28;20524;-84
2022/07/19 04:08:24;;;;;;;1.33;0.80;;;14.60;99.90;;;;;;5057673;28;20499;-86
2022/07/19 04:10:51;;;;;;;0.73;0.70;;;14.60;99.90;;;;;;5065956;28;20503;-86
2022/07/19 04:13:19;;;;;;;0.70;0.70;;;14.60;99.90;;;;;;5060972;28;20799;-87
2022/07/19 04:15:46;;;;;;;0.70;0.70;;;14.60;99.90;;;;;;5056688;28;20556;-85
2022/07/19 04:18:13;;;;;;;0.87;0.87;;;14.70;99.90;;;;;;5057618;28;20463;-87
2022/07/19 04:20:40;;;;;;;1.43;0.80;;;14.70;99.90;;;;;;5059996;28;20463;-87
2022/07/19 04:23:07;;;;;;;1.07;0.60;;;14.80;99.90;;;;;;5056271;28;20527;-89
2022/07/19 04:25:34;;;;;;;0.60;0.60;;;14.90;99.90;;;;;;5055777;28;20486;-86
2022/07/19 04:28:02;;;;;;;7.90;0.83;;;15.00;99.90;;;;;;5059719;28;20543;-85
2022/07/19 04:30:30;;;;;;;1.33;0.67;;;15.00;99.90;;;;;;5058016;28;20475;-87
2022/07/19 04:32:57;;;;;;;1.17;0.70;;;15.30;99.90;;;;;;5058958;28;20465;-85
2022/07/19 04:35:25;;;;;;;2.17;1.00;;;15.30;99.90;;;;;;5056851;28;20497;-86
2022/07/19 04:37:52;;;;;;;1.93;1.00;;;15.40;99.90;;;;;;5055220;28;20463;-86
2022/07/19 04:40:19;;;;;;;0.70;0.60;;;15.40;99.90;;;;;;5052614;28;20866;-85
2022/07/19 04:42:46;;;;;;;1.83;1.00;;;15.40;99.90;;;;;;5052864;28;20864;-86
2022/07/19 04:45:13;;;;;;;2.30;0.60;;;15.60;99.90;;;;;;5053590;28;20943;-86
2022/07/19 04:47:41;;;;;;;0.80;0.60;;;15.80;99.90;;;;;;5060140;28;20469;-86
2022/07/19 04:50:10;;;;;;;1.43;0.70;;;15.80;99.90;;;;;;5055413;28;20479;-93
2022/07/19 04:52:42;;;;;;;1.00;0.70;;;15.90;99.90;;;;;;5064417;28;20459;-86
2022/07/19 04:55:10;;;;;;;0.60;0.60;;;16.10;99.90;;;;;;5060599;28;20471;-87
2022/07/19 04:57:37;;;;;;;1.00;0.97;;;16.20;99.90;;;;;;5061421;28;20546;-84
2022/07/19 05:00:05;;;;;;;0.70;0.60;;;16.40;99.90;;;;;;5063029;28;20888;-85
2022/07/19 05:02:32;;;;;;;1.90;0.77;;;16.60;99.90;;;;;;5059705;28;20468;-86
2022/07/19 05:05:00;;;;;;;1.13;0.87;;;16.50;99.90;;;;;;5061376;28;20460;-86
2022/07/19 05:07:28;;;;;;;1.20;1.10;;;16.30;99.90;;;;;;5053560;28;20494;-86
2022/07/19 05:09:54;;;;;;;1.07;0.80;;;16.60;99.90;;;;;;5067790;28;20479;-84
2022/07/19 05:12:22;;;;;;;0.63;0.60;;;16.80;99.90;;;;;;5069085;28;20469;-85
2022/07/19 05:14:49;;;;;;;0.80;0.80;;;16.90;99.90;;;;;;5063560;28;20453;-85
2022/07/19 05:17:16;;;;;;;0.70;0.60;;;16.90;99.90;;;;;;5074532;28;20471;-86
2022/07/19 05:19:43;;;;;;;0.60;0.60;;;17.10;99.90;;;;;;5070259;28;20461;-86
2022/07/19 05:22:12;;;;;;;1.50;1.00;;;17.20;99.90;;;;;;5061923;28;20948;-86
2022/07/19 05:24:39;;;;;;;0.80;0.80;;;17.30;99.90;;;;;;5060672;28;20459;-85
2022/07/19 05:27:06;;;;;;;0.77;0.77;;;17.30;99.90;;;;;;5063400;28;20451;-84
2022/07/19 05:29:32;;;;;;;1.53;0.70;;;17.40;99.90;;;;;;5065901;28;20463;-86
2022/07/19 05:31:59;;;;;;;0.87;0.87;;;17.40;99.90;;;;;;5057945;28;20456;-86
2022/07/19 05:34:26;;;;;;;1.40;0.60;;;17.60;99.90;;;;;;5064869;28;20578;-85
2022/07/19 05:36:53;;;;;;;0.90;0.50;;;17.80;99.90;;;;;;5063347;28;20467;-87
2022/07/19 05:39:22;;;;;;;0.60;0.60;;;17.90;99.90;;;;;;5058750;28;20515;-85
2022/07/19 05:41:49;;;;;;;0.80;0.70;;;18.10;99.90;;;;;;5061203;28;20466;-87
2022/07/19 05:44:16;;;;;;;1.30;0.90;;;18.40;99.90;;;;;;5066055;28;21026;-87
2022/07/19 05:46:43;;;;;;;1.10;0.80;;;18.60;99.90;;;;;;5063227;28;20463;-85
2022/07/19 05:49:10;;;;;;;0.87;0.60;;;18.70;99.90;;;;;;5062731;28;20467;-86
2022/07/19 05:51:37;;;;;;;0.90;0.80;;;18.80;99.90;;;;;;5055159;28;20495;-87
2022/07/19 05:54:05;;;;;;;0.80;0.80;;;18.80;99.90;;;;;;5064472;28;21045;-86
2022/07/19 05:56:34;;;;;;;3.80;1.00;;;18.80;99.90;;;;;;5060285;28;21001;-86
2022/07/19 05:59:01;;;;;;;1.43;1.10;;;18.80;99.90;;;;;;5062938;28;20479;-86
2022/07/19 06:01:29;;;;;;;2.00;1.10;;;19.00;99.90;;;;;;5058965;28;20464;-86
2022/07/19 06:03:58;;;;;;;1.37;0.90;;;19.00;99.10;;;;;;5061957;28;20457;-88
2022/07/19 06:06:26;;;;;;;0.83;0.83;;;19.10;97.70;;;;;;5064186;28;20509;-86
2022/07/19 06:08:53;;;;;;;0.83;0.83;;;19.10;97.80;;;;;;5059680;28;20515;-86
2022/07/19 06:11:20;;;;;;;0.73;0.73;;;19.10;98.90;;;;;;5058206;28;20532;-86
2022/07/19 06:13:49;;;;;;;1.03;0.90;;;19.20;98.20;;;;;;5064591;28;20537;-86
2022/07/19 06:16:16;;;;;;;0.70;0.70;;;19.50;98.20;;;;;;5060626;28;20480;-89
2022/07/19 06:18:44;;;;;;;0.80;0.80;;;19.70;97.50;;;;;;5062048;28;20460;-85
2022/07/19 06:21:13;;;;;;;1.13;0.70;;;19.90;96.60;;;;;;5067139;28;20525;-87
2022/07/19 06:23:40;;;;;;;1.67;0.60;;;20.00;96.90;;;;;;5064960;28;20514;-86
2022/07/19 06:26:08;;;;;;;2.00;1.23;;;19.90;97.10;;;;;;5058833;28;20463;-85
2022/07/19 06:28:36;;;;;;;4.63;1.07;;;20.00;97.10;;;;;;5057622;28;21089;-88
2022/07/19 06:31:04;;;;;;;4.73;1.00;;;20.00;96.10;;;;;;5063419;28;20489;-86
2022/07/19 06:33:31;;;;;;;1.00;1.00;;;20.00;96.20;;;;;;5059582;28;20462;-86
2022/07/19 06:35:58;;;;;;;1.10;0.70;;;20.30;95.90;;;;;;5067722;28;20531;-87
2022/07/19 06:38:26;;;;;;;5.73;0.90;;;20.60;94.90;;;;;;5069221;28;20457;-85
2022/07/19 06:40:53;;;;;;;2.80;0.97;;;20.70;94.80;;;;;;5069188;28;20535;-85
2022/07/19 06:43:20;;;;;;;1.07;0.97;;;20.80;95.60;;;;;;5065559;28;20470;-86
2022/07/19 06:45:47;;;;;;;0.70;0.70;;;20.80;93.10;;;;;;5061181;28;20979;-86
2022/07/19 06:48:16;;;;;;;1.10;1.10;;;20.80;94.90;;;;;;5060946;28;20463;-89
2022/07/19 06:50:43;;;;;;;2.50;0.93;;;20.90;94.50;;;;;;5067090;28;20966;-85
2022/07/19 06:53:10;;;;;;;1.87;0.90;;;21.00;93.80;;;;;;5064289;28;20456;-85
2022/07/19 06:55:37;;;;;;;0.70;0.70;;;21.00;96.20;;;;;;5060595;28;20444;-87
2022/07/19 06:58:04;;;;;;;1.10;1.00;;;21.20;95.40;;;;;;5056443;28;20689;-87
2022/07/19 07:00:32;;;;;;;0.90;0.80;;;21.40;96.90;;;;;;5057608;28;20529;-85
2022/07/19 07:02:59;;;;;;;2.40;0.60;;;21.70;95.20;;;;;;5060674;28;20439;-86
2022/07/19 07:05:27;;;;;;;0.77;0.77;;;21.70;95.40;;;;;;5055910;28;20460;-86
2022/07/19 07:07:54;;;;;;;1.17;1.07;;;22.00;93.70;;;;;;5059825;28;20554;-88
2022/07/19 07:10:22;;;;;;;2.40;1.00;;;21.80;93.70;;;;;;5063081;28;20465;-86
2022/07/19 07:12:50;;;;;;;1.23;1.13;;;22.10;94.80;;;;;;5055504;28;20889;-86
2022/07/19 07:15:17;;;;;;;1.43;0.70;;;22.40;93.30;;;;;;5063041;28;20441;-85
2022/07/19 07:17:44;;;;;;;1.10;0.80;;;22.30;93.40;;;;;;5060026;28;20524;-86
2022/07/19 07:20:12;;;;;;;0.70;0.70;;;22.30;93.00;;;;;;5063713;28;20460;-86
2022/07/19 07:22:41;;;;;;;1.90;1.10;;;22.40;92.80;;;;;;5056664;28;21112;-85
2022/07/19 07:25:09;;;;;;;1.40;0.80;;;22.50;92.20;;;;;;5064098;28;20472;-88
2022/07/19 07:27:37;;;;;;;0.80;0.80;;;22.50;92.60;;;;;;5055109;28;20823;-85
2022/07/19 07:30:05;;;;;;;1.13;1.03;;;22.40;92.90;;;;;;5056898;28;20452;-86
2022/07/19 07:32:33;;;;;;;2.13;1.23;;;22.40;92.70;;;;;;5053602;28;20993;-86
2022/07/19 07:35:00;;;;;;;3.03;1.10;;;22.10;92.40;;;;;;5061798;28;20529;-85
2022/07/19 07:37:27;;;;;;;1.70;1.10;;;22.40;92.00;;;;;;5060323;28;20514;-85
2022/07/19 07:39:56;;;;;;;0.93;0.83;;;22.80;92.50;;;;;;5060347;28;20442;-86
2022/07/19 07:42:24;;;;;;;0.83;0.83;;;22.80;92.50;;;;;;5066121;28;20452;-85
2022/07/19 07:44:52;;;;;;;1.17;1.07;;;23.00;93.10;;;;;;5060471;28;20541;-87
2022/07/19 07:47:19;;;;;;;1.40;1.07;;;22.80;92.90;;;;;;5057256;28;20464;-86
2022/07/19 07:49:46;;;;;;;2.40;1.30;;;22.80;92.30;;;;;;5054364;28;20886;-87
2022/07/19 07:52:13;;;;;;;1.10;0.97;;;22.90;93.40;;;;;;5055522;28;20959;-86
2022/07/19 07:54:40;;;;;;;1.40;1.30;;;23.20;93.10;;;;;;5052716;28;20438;-85
2022/07/19 07:57:09;;;;;;;1.10;0.90;;;23.20;91.80;;;;;;5052830;28;20461;-87
2022/07/19 07:59:36;;;;;;;2.63;1.70;;;23.50;93.90;;;;;;5055161;28;20467;-86
2022/07/19 08:02:03;;;;;;;1.97;1.40;;;23.70;92.40;;;;;;5058519;28;20455;-86
2022/07/19 08:04:31;;;;;;;2.00;1.30;;;23.70;91.50;;;;;;5064917;28;20443;-87
2022/07/19 08:06:58;;;;;;;1.77;1.67;;;23.60;90.60;;;;;;5057896;28;20491;-85
2022/07/19 08:09:25;;;;;;;1.73;1.63;;;23.80;91.90;;;;;;5063471;28;20451;-88
2022/07/19 08:11:52;;;;;;;1.73;1.60;;;23.70;92.50;;;;;;5071349;28;20476;-85
2022/07/19 08:14:20;;;;;;;0.93;0.73;;;23.80;90.90;;;;;;5082252;28;20823;-85
2022/07/19 08:16:47;;;;;;;1.50;1.40;;;24.10;90.80;;;;;;5077578;28;20475;-85
2022/07/19 08:19:14;;;;;;;1.70;0.90;;;23.90;90.90;;;;;;5063191;28;21187;-85
2022/07/19 08:21:41;;;;;;;1.33;0.87;;;23.90;91.00;;;;;;5060749;28;20448;-87
2022/07/19 08:24:08;;;;;;;0.90;0.90;;;24.20;88.40;;;;;;5067342;28;20509;-85
2022/07/19 08:26:35;;;;;;;0.90;0.90;;;24.60;91.10;;;;;;5065153;28;20461;-84
2022/07/19 08:29:02;;;;;;;1.60;1.37;;;24.70;89.50;;;;;;5064688;28;20455;-84
2022/07/19 08:31:30;;;;;;;1.10;0.70;;;24.80;88.30;;;;;;5067211;28;20970;-85
2022/07/19 08:33:57;;;;;;;1.33;1.10;;;25.00;88.80;;;;;;5065512;28;20456;-86
2022/07/19 08:36:24;;;;;;;1.53;1.43;;;25.10;87.00;;;;;;5055510;28;20441;-84
2022/07/19 08:38:51;;;;;;;0.97;0.90;;;25.20;84.70;;;;;;5064208;28;21091;-86
2022/07/19 08:41:19;;;;;;;1.40;1.30;;;25.40;86.40;;;;;;5062842;28;20444;-84
2022/07/19 08:43:48;;;;;;;1.37;1.17;;;25.20;89.50;;;;;;5061454;28;20455;-87
2022/07/19 08:46:15;;;;;;;1.73;0.90;;;25.10;85.80;;;;;;5058760;28;20919;-86
2022/07/19 08:48:46;;;;;;;1.00;0.90;;;24.60;88.20;;;;;;5061456;28;20469;-86
2022/07/19 08:51:14;;;;;;;1.13;0.90;;;24.70;86.70;;;;;;5065335;28;20515;-85
2022/07/19 08:53:41;;;;;;;1.10;1.00;;;25.00;87.50;;;;;;5063664;28;20456;-85
2022/07/19 08:58:49;;;;;;;1.00;0.83;;;25.60;87.40;;;;;;5063784;28;21176;-86
2022/07/19 09:01:16;;;;;;;0.87;0.87;;;25.90;86.40;;;;;;5065034;28;20464;-89
2022/07/19 09:04:06;;;;;;;1.70;1.17;;;26.20;84.00;;;;;;5066980;28;20456;-85
2022/07/19 09:06:39;;;;;;;3.30;0.83;;;25.90;81.90;;;;;;5058235;28;20468;-84
2022/07/19 09:09:06;;;;;;;1.10;1.00;;;26.10;81.90;;;;;;5065369;28;20536;-86
2022/07/19 09:11:34;;;;;;;1.73;0.93;;;26.60;84.90;;;;;;5062211;28;20480;-85
2022/07/19 09:14:06;;;;;;;0.70;0.70;;;26.60;80.50;;;;;;5066478;28;20478;-85
2022/07/19 09:16:52;;;;;;;1.10;1.00;;;26.90;78.80;;;;;;5065611;28;20479;-85
2022/07/19 09:19:21;;;;;;;0.80;0.80;;;26.80;76.70;;;;;;5061640;28;20455;-86
2022/07/19 09:21:53;;;;;;;1.83;0.97;;;27.10;74.50;;;;;;5062691;28;20457;-87
2022/07/19 09:24:21;;;;;;;1.90;0.70;;;27.20;75.00;;;;;;5056416;28;20509;-85
2022/07/19 09:26:59;;;;;;;0.67;0.67;;;27.20;72.70;;;;;;5058271;28;20467;-86
2022/07/19 09:29:27;;;;;;;1.60;0.90;;;27.40;74.40;;;;;;5063369;28;20509;-86
2022/07/19 09:32:06;;;;;;;1.13;0.80;;;27.20;72.00;;;;;;5064633;28;20476;-86
2022/07/19 09:34:36;;;;;;;1.20;0.90;;;27.30;73.90;;;;;;5056975;28;20454;-85
2022/07/19 09:37:18;;;;;;;1.63;0.80;;;27.60;72.50;;;;;;5061126;28;20451;-84
2022/07/19 09:39:47;;;;;;;0.93;0.93;;;27.80;73.90;;;;;;5058239;28;20459;-85
2022/07/19 09:42:16;;;;;;;1.23;0.87;;;27.90;71.10;;;;;;5064455;28;20468;-85
2022/07/19 09:44:44;;;;;;;0.63;0.60;;;27.80;69.10;;;;;;5055416;28;20659;-85
2022/07/19 09:47:11;;;;;;;1.80;0.80;;;27.80;71.20;;;;;;5064820;28;21103;-85
2022/07/19 09:49:40;;;;;;;0.70;0.70;;;27.80;74.60;;;;;;5057064;28;20456;-85
2022/07/19 09:52:10;;;;;;;1.67;0.70;;;28.00;69.40;;;;;;5058386;28;20527;-84
2022/07/19 09:54:40;;;;;;;0.83;0.83;;;28.10;63.20;;;;;;5066235;28;20499;-85
2022/07/19 09:57:08;;;;;;;1.27;0.93;;;28.20;61.90;;;;;;5065123;28;20440;-85
2022/07/19 09:59:38;;;;;;;1.53;0.67;;;28.30;63.10;;;;;;5063554;28;20501;-86
2022/07/19 10:02:05;;;;;;;1.73;0.60;;;28.30;61.40;;;;;;5062358;28;20459;-85
2022/07/19 10:04:35;;;;;;;4.40;4.10;;;28.30;60.10;;;;;;5063762;28;20447;-84
2022/07/19 10:07:03;;;;;;;0.80;0.80;;;28.60;63.40;;;;;;5063571;28;20942;-86
2022/07/19 10:09:31;;;;;;;0.67;0.67;;;28.80;60.00;;;;;;5060096;28;20557;-86
2022/07/19 10:11:59;;;;;;;0.80;0.67;;;29.10;58.70;;;;;;5061385;28;20544;-85
2022/07/19 10:14:26;;;;;;;0.70;0.70;;;29.00;57.10;;;;;;5060744;28;21178;-86
2022/07/19 10:17:11;;;;;;;1.67;1.13;;;28.80;58.70;;;;;;5056780;28;20486;-84
2022/07/19 10:19:40;;;;;;;0.60;0.60;;;28.90;57.90;;;;;;5057651;28;20792;-86
2022/07/19 10:22:11;;;;;;;0.70;0.70;;;28.90;58.70;;;;;;5059450;28;20468;-85
2022/07/19 10:24:50;;;;;;;0.70;0.63;;;28.80;57.00;;;;;;5061594;28;20468;-85
2022/07/19 10:27:18;;;;;;;0.73;0.73;;;28.80;53.60;;;;;;5054794;28;20513;-84
2022/07/19 10:29:46;;;;;;;1.10;0.70;;;29.00;57.90;;;;;;5055086;28;20540;-84
2022/07/19 10:32:14;;;;;;;0.73;0.60;;;29.00;55.90;;;;;;5053673;28;20476;-86
2022/07/19 10:34:45;;;;;;;0.53;0.53;;;29.40;55.90;;;;;;5059137;28;20486;-86
2022/07/19 10:37:14;;;;;;;0.67;0.67;;;29.10;52.60;;;;;;5057748;28;20542;-85
2022/07/19 10:39:41;;;;;;;3.63;0.60;;;29.20;55.10;;;;;;5067382;28;20460;-85
2022/07/19 10:42:14;;;;;;;0.53;0.50;;;29.10;52.30;;;;;;5067809;28;20467;-84
2022/07/19 10:45:14;;;;;;;0.60;0.47;;;29.40;50.20;;;;;;5057499;28;20542;-84
2022/07/19 10:48:11;;;;;;;3.53;0.67;;;29.40;52.40;;;;;;5059947;28;20590;-84
2022/07/19 10:50:58;;;;;;;6.97;0.70;;;29.70;49.50;;;;;;5055354;28;20554;-86
2022/07/19 10:53:59;;;;;;;0.60;0.50;;;29.90;51.40;;;;;;5051556;28;20472;-84
2022/07/19 10:56:33;;;;;;;0.73;0.53;;;30.00;48.10;;;;;;5052995;28;20459;-85
2022/07/19 10:59:02;;;;;;;0.80;0.50;;;30.00;50.20;;;;;;5062380;28;20531;-86
2022/07/19 11:01:32;;;;;;;0.60;0.50;;;30.00;48.30;;;;;;5057187;28;20816;-86
2022/07/19 11:04:29;;;;;;;2.07;0.70;;;29.90;47.80;;;;;;5059192;28;20936;-84
2022/07/19 11:07:20;;;;;;;0.60;0.50;;;29.90;48.70;;;;;;5062138;28;20951;-85
2022/07/19 11:09:58;;;;;;;0.60;0.50;;;30.00;47.20;;;;;;5071809;28;20469;-85
2022/07/19 11:12:34;;;;;;;0.70;0.70;;;30.10;46.50;;;;;;5072454;28;20476;-84
2022/07/19 11:15:06;;;;;;;1.17;1.07;;;30.30;48.60;;;;;;5060529;28;20863;-86
2022/07/19 11:17:33;;;;;;;0.50;0.40;;;30.50;46.40;;;;;;5064761;28;20510;-86
2022/07/19 11:20:04;;;;;;;0.60;0.60;;;30.20;44.40;;;;;;5062850;28;20476;-84
2022/07/19 11:22:40;;;;;;;0.67;0.50;;;30.10;44.20;;;;;;5060530;28;21175;-86
2022/07/19 11:25:11;;;;;;;0.67;0.53;;;30.10;46.10;;;;;;5062781;28;20463;-85
2022/07/19 11:27:42;;;;;;;0.70;0.53;;;30.00;45.20;;;;;;5060164;28;20463;-84
2022/07/19 11:30:10;;;;;;;2.40;0.50;;;30.30;47.80;;;;;;5058389;28;20473;-85
2022/07/19 11:32:37;;;;;;;0.77;0.60;;;30.40;45.80;;;;;;5060683;28;20480;-85
2022/07/19 11:35:06;;;;;;;1.43;0.57;;;30.40;44.00;;;;;;5060420;28;20460;-85
2022/07/19 11:37:35;;;;;;;0.90;0.60;;;30.40;44.90;;;;;;5060324;28;20506;-85
2022/07/19 11:40:03;;;;;;;0.67;0.60;;;30.20;44.80;;;;;;5056695;28;21019;-86
2022/07/19 11:42:36;;;;;;;0.60;0.50;;;30.10;44.10;;;;;;5055510;28;20466;-86
2022/07/19 11:45:15;;;;;;;0.90;0.50;;;30.30;45.50;;;;;;5056061;28;20457;-84
2022/07/19 11:47:43;;;;;;;1.33;0.50;;;30.30;44.70;;;;;;5060654;28;20532;-85
2022/07/19 11:50:13;;;;;;;0.70;0.60;;;30.70;45.70;;;;;;5059937;28;20460;-86
2022/07/19 11:52:58;;;;;;;0.60;0.60;;;30.60;43.60;;;;;;5056232;28;20526;-86
2022/07/19 11:55:28;;;;;;;3.43;0.60;;;30.50;46.40;;;;;;5049263;28;20475;-87
2022/07/19 11:57:58;;;;;;;1.43;0.50;;;30.50;43.50;;;;;;5054046;28;20464;-84
2022/07/19 12:00:25;;;;;;;1.00;0.90;;;30.40;44.80;;;;;;5056918;28;20456;-84
2022/07/19 12:02:56;;;;;;;1.10;0.67;;;30.40;45.70;;;;;;5058186;28;20457;-85
2022/07/19 12:05:24;;;;;;;0.50;0.50;;;30.60;46.90;;;;;;5058661;28;21018;-85
2022/07/19 12:07:54;;;;;;;0.70;0.50;;;30.70;45.60;;;;;;5055883;28;20483;-84
2022/07/19 12:10:39;;;;;;;0.70;0.60;;;30.60;44.00;;;;;;5056150;28;21207;-85
2022/07/19 12:13:12;;;;;;;0.60;0.60;;;30.90;44.90;;;;;;5059379;28;20525;-85
2022/07/19 12:15:52;;;;;;;0.80;0.50;;;31.00;42.90;;;;;;5059535;28;20519;-84
2022/07/19 12:18:20;;;;;;;0.70;0.60;;;30.90;45.80;;;;;;5056572;28;20456;-85
2022/07/19 12:21:15;;;;;;;1.53;0.80;;;31.10;44.10;;;;;;5060173;28;20464;-84
2022/07/19 12:23:42;;;;;;;0.70;0.60;;;31.20;44.10;;;;;;5056119;28;21053;-83
2022/07/19 12:26:10;;;;;;;0.50;0.40;;;31.30;44.60;;;;;;5058318;28;20513;-85
2022/07/19 12:28:38;;;;;;;0.77;0.50;;;31.00;42.70;;;;;;5055938;28;20879;-85
2022/07/19 12:31:06;;;;;;;0.70;0.67;;;31.10;42.80;;;;;;5056963;28;20452;-85
2022/07/19 12:33:33;;;;;;;1.53;0.63;;;30.90;43.60;;;;;;5059489;28;20537;-84
2022/07/19 12:36:00;;;;;;;0.70;0.50;;;30.80;44.90;;;;;;5060894;28;20490;-83
2022/07/19 12:38:32;;;;;;;1.37;0.50;;;30.90;44.30;;;;;;5058504;28;20461;-87
2022/07/19 12:41:06;;;;;;;0.80;0.60;;;31.10;45.50;;;;;;5057491;28;20518;-86
2022/07/19 12:43:33;;;;;;;0.60;0.60;;;31.20;42.00;;;;;;5060351;28;20444;-86
2022/07/19 12:46:03;;;;;;;1.63;0.60;;;31.10;43.40;;;;;;5064054;28;20554;-86
2022/07/19 12:48:31;;;;;;;0.60;0.50;;;31.40;45.40;;;;;;5057243;28;20508;-88
2022/07/19 12:50:58;;;;;;;1.13;0.50;;;31.30;44.00;;;;;;5064339;28;20470;-87
2022/07/19 12:53:25;;;;;;;0.83;0.83;;;31.20;40.80;;;;;;5059045;28;20567;-86
2022/07/19 12:55:52;;;;;;;0.80;0.57;;;31.30;43.30;;;;;;5057822;28;20467;-86
2022/07/19 13:01:03;;;;;;;1.87;0.73;;;31.10;44.00;;;;;;5057789;28;20448;-86